createdAt,value
2022-10-12T00:00:08.244Z,0
2022-10-12T00:01:08.335Z,0
2022-10-12T00:02:08.764Z,0
2022-10-12T00:03:08.249Z,0
2022-10-12T00:04:08.271Z,0
2022-10-12T00:05:08.242Z,0
2022-10-12T00:06:08.247Z,0
2022-10-12T00:07:08.261Z,0
2022-10-12T00:08:08.255Z,0
2022-10-12T00:09:08.270Z,0
2022-10-12T00:10:09.334Z,0
2022-10-12T00:11:08.256Z,0
2022-10-12T00:12:08.293Z,0
2022-10-12T00:13:08.285Z,0
2022-10-12T00:14:08.306Z,0
2022-10-12T00:15:11.275Z,0
2022-10-12T00:16:08.277Z,0
2022-10-12T00:17:08.375Z,0
2022-10-12T00:18:08.272Z,0
2022-10-12T00:19:08.299Z,0
2022-10-12T00:20:08.277Z,0
2022-10-12T00:21:11.309Z,0
2022-10-12T00:22:08.280Z,0
2022-10-12T00:23:08.280Z,0
2022-10-12T00:24:08.330Z,0
2022-10-12T00:25:08.289Z,0
2022-10-12T00:26:11.314Z,0
2022-10-12T00:27:08.284Z,0
2022-10-12T00:28:08.334Z,0
2022-10-12T00:29:08.322Z,0
2022-10-12T00:30:08.366Z,0
2022-10-12T00:31:08.305Z,0
2022-10-12T00:32:11.491Z,0
2022-10-12T00:33:08.321Z,0
2022-10-12T00:34:08.318Z,0
2022-10-12T00:35:08.308Z,0
2022-10-12T00:36:11.615Z,0
2022-10-12T00:37:11.422Z,0
2022-10-12T00:38:17.275Z,0
2022-10-12T00:39:08.330Z,0
2022-10-12T00:40:08.320Z,0
2022-10-12T00:41:08.306Z,0
2022-10-12T00:42:14.362Z,0
2022-10-12T00:43:11.138Z,0
2022-10-12T00:44:11.371Z,0
2022-10-12T00:45:08.311Z,0
2022-10-12T00:46:08.327Z,0
2022-10-12T00:47:08.337Z,0
2022-10-12T00:48:11.120Z,0
2022-10-12T00:49:08.348Z,0
2022-10-12T00:50:08.343Z,0
2022-10-12T00:51:08.335Z,0
2022-10-12T00:52:08.328Z,0
2022-10-12T00:53:08.353Z,0
2022-10-12T00:54:11.130Z,0
2022-10-12T00:55:08.326Z,0
2022-10-12T00:56:08.341Z,0
2022-10-12T00:57:08.350Z,0
2022-10-12T00:58:08.348Z,0
2022-10-12T00:59:11.739Z,0
2022-10-12T01:00:08.334Z,0
2022-10-12T01:01:08.794Z,0
2022-10-12T01:02:08.362Z,0
2022-10-12T01:03:08.346Z,0
2022-10-12T01:04:08.454Z,0
2022-10-12T01:05:11.447Z,0
2022-10-12T01:06:08.354Z,0
2022-10-12T01:07:08.362Z,0
2022-10-12T01:08:08.568Z,0
2022-10-12T01:09:08.385Z,0
2022-10-12T01:10:11.466Z,0
2022-10-12T01:11:08.370Z,0
2022-10-12T01:12:08.360Z,0
2022-10-12T01:13:08.375Z,0
2022-10-12T01:14:08.528Z,0
2022-10-12T01:15:08.394Z,0
2022-10-12T01:16:11.312Z,0
2022-10-12T01:17:08.382Z,0
2022-10-12T01:18:08.377Z,0
2022-10-12T01:19:08.526Z,0
2022-10-12T01:20:08.491Z,0
2022-10-12T01:21:09.461Z,0
2022-10-12T01:22:08.377Z,0
2022-10-12T01:23:08.382Z,0
2022-10-12T01:24:08.409Z,0
2022-10-12T01:25:08.526Z,0
2022-10-12T01:26:08.389Z,0
2022-10-12T01:27:11.220Z,0
2022-10-12T01:28:08.399Z,0
2022-10-12T01:29:08.415Z,0
2022-10-12T01:30:08.398Z,0
2022-10-12T01:31:08.408Z,0
2022-10-12T01:32:13.294Z,0
2022-10-12T01:33:08.394Z,0
2022-10-12T01:34:08.424Z,0
2022-10-12T01:35:08.469Z,0
2022-10-12T01:36:08.515Z,0
2022-10-12T01:37:08.406Z,0
2022-10-12T01:38:08.400Z,0
2022-10-12T01:39:08.425Z,0
2022-10-12T01:40:08.400Z,0
2022-10-12T01:41:08.416Z,0
2022-10-12T01:42:08.426Z,0
2022-10-12T01:43:12.246Z,0
2022-10-12T01:44:08.435Z,0
2022-10-12T01:45:08.439Z,0
2022-10-12T01:46:08.263Z,0
2022-10-12T01:47:08.450Z,0
2022-10-12T01:48:08.476Z,0
2022-10-12T01:49:08.290Z,0
2022-10-12T01:50:08.440Z,0
2022-10-12T01:51:08.461Z,0
2022-10-12T01:52:08.520Z,0
2022-10-12T01:53:08.467Z,0
2022-10-12T01:54:08.464Z,0
2022-10-12T01:55:08.443Z,0
2022-10-12T01:56:08.461Z,0
2022-10-12T01:57:08.438Z,0
2022-10-12T01:58:08.454Z,0
2022-10-12T01:59:08.474Z,0
2022-10-12T02:00:08.462Z,0
2022-10-12T02:01:08.786Z,0
2022-10-12T02:02:08.456Z,0
2022-10-12T02:03:08.484Z,0
2022-10-12T02:04:08.476Z,0
2022-10-12T02:05:08.481Z,0
2022-10-12T02:06:08.467Z,0
2022-10-12T02:07:08.474Z,0
2022-10-12T02:08:08.529Z,0
2022-10-12T02:09:08.488Z,0
2022-10-12T02:10:11.718Z,0
2022-10-12T02:11:08.458Z,0
2022-10-12T02:12:08.508Z,0
2022-10-12T02:13:08.465Z,0
2022-10-12T02:14:08.483Z,0
2022-10-12T02:15:11.229Z,0
2022-10-12T02:16:08.507Z,0
2022-10-12T02:17:08.478Z,0
2022-10-12T02:18:08.483Z,0
2022-10-12T02:19:08.521Z,0
2022-10-12T02:20:08.499Z,0
2022-10-12T02:21:08.477Z,0
2022-10-12T02:22:13.984Z,0
2022-10-12T02:23:08.480Z,0
2022-10-12T02:24:08.573Z,0
2022-10-12T02:25:08.711Z,0
2022-10-12T02:26:11.235Z,0
2022-10-12T02:27:08.492Z,0
2022-10-12T02:28:08.612Z,0
2022-10-12T02:29:08.508Z,0
2022-10-12T02:30:08.486Z,0
2022-10-12T02:31:08.827Z,0
2022-10-12T02:32:08.498Z,0
2022-10-12T02:33:08.494Z,0
2022-10-12T02:34:08.516Z,0
2022-10-12T02:35:08.538Z,0
2022-10-12T02:36:08.514Z,0
2022-10-12T02:37:11.364Z,0
2022-10-12T02:38:08.544Z,0
2022-10-12T02:39:08.515Z,0
2022-10-12T02:40:08.787Z,0
2022-10-12T02:41:08.502Z,0
2022-10-12T02:42:11.659Z,0
2022-10-12T02:43:18.578Z,0
2022-10-12T02:44:08.534Z,0
2022-10-12T02:45:08.512Z,0
2022-10-12T02:46:08.516Z,0
2022-10-12T02:47:08.530Z,0
2022-10-12T02:48:11.385Z,0
2022-10-12T02:49:08.546Z,0
2022-10-12T02:50:08.527Z,0
2022-10-12T02:51:08.561Z,0
2022-10-12T02:52:08.520Z,0
2022-10-12T02:53:11.592Z,0
2022-10-12T02:54:08.598Z,0
2022-10-12T02:55:08.538Z,0
2022-10-12T02:56:08.612Z,0
2022-10-12T02:57:08.525Z,0
2022-10-12T02:58:08.554Z,0
2022-10-12T02:59:10.507Z,0
2022-10-12T03:00:08.545Z,0
2022-10-12T03:01:08.802Z,0
2022-10-12T03:02:08.581Z,0
2022-10-12T03:03:08.552Z,0
2022-10-12T03:04:09.714Z,0
2022-10-12T03:05:08.594Z,0
2022-10-12T03:06:08.544Z,0
2022-10-12T03:07:08.593Z,0
2022-10-12T03:08:08.572Z,0
2022-10-12T03:09:08.582Z,0
2022-10-12T03:10:11.420Z,0
2022-10-12T03:11:08.562Z,0
2022-10-12T03:12:08.638Z,0
2022-10-12T03:13:08.562Z,0
2022-10-12T03:14:08.582Z,0
2022-10-12T03:15:11.589Z,0
2022-10-12T03:16:08.565Z,0
2022-10-12T03:17:08.571Z,0
2022-10-12T03:18:08.577Z,0
2022-10-12T03:19:08.585Z,0
2022-10-12T03:20:08.600Z,0
2022-10-12T03:21:11.456Z,0
2022-10-12T03:22:08.573Z,0
2022-10-12T03:23:08.617Z,0
2022-10-12T03:24:08.609Z,0
2022-10-12T03:25:08.638Z,0
2022-10-12T03:26:11.512Z,0
2022-10-12T03:27:08.589Z,0
2022-10-12T03:28:08.743Z,0
2022-10-12T03:29:08.604Z,0
2022-10-12T03:30:08.597Z,0
2022-10-12T03:31:08.611Z,0
2022-10-12T03:32:11.427Z,0
2022-10-12T03:33:08.438Z,0
2022-10-12T03:34:08.648Z,0
2022-10-12T03:35:08.620Z,0
2022-10-12T03:36:08.608Z,0
2022-10-12T03:37:11.414Z,0
2022-10-12T03:38:08.600Z,0
2022-10-12T03:39:08.644Z,0
2022-10-12T03:40:08.613Z,0
2022-10-12T03:41:13.353Z,0
2022-10-12T03:42:08.609Z,0
2022-10-12T03:43:11.411Z,0
2022-10-12T03:44:08.726Z,0
2022-10-12T03:45:08.612Z,0
2022-10-12T03:46:08.790Z,0
2022-10-12T03:47:08.610Z,0
2022-10-12T03:48:11.889Z,0
2022-10-12T03:49:08.646Z,0
2022-10-12T03:50:08.636Z,0
2022-10-12T03:51:08.625Z,0
2022-10-12T03:52:08.675Z,0
2022-10-12T03:53:08.647Z,0
2022-10-12T03:54:12.041Z,0
2022-10-12T03:55:08.675Z,0
2022-10-12T03:56:08.651Z,0
2022-10-12T03:57:08.631Z,0
2022-10-12T03:58:11.638Z,0
2022-10-12T03:59:11.565Z,0
2022-10-12T04:00:08.692Z,0
2022-10-12T04:01:08.912Z,0
2022-10-12T04:02:11.045Z,0
2022-10-12T04:03:08.646Z,0
2022-10-12T04:04:08.646Z,0
2022-10-12T04:05:08.660Z,0
2022-10-12T04:06:08.653Z,0
2022-10-12T04:07:08.639Z,0
2022-10-12T04:08:08.809Z,0
2022-10-12T04:09:08.654Z,0
2022-10-12T04:10:11.514Z,0
2022-10-12T04:11:08.680Z,0
2022-10-12T04:12:08.660Z,0
2022-10-12T04:13:08.648Z,0
2022-10-12T04:14:08.662Z,0
2022-10-12T04:15:08.776Z,0
2022-10-12T04:16:08.670Z,0
2022-10-12T04:17:08.658Z,0
2022-10-12T04:18:08.678Z,0
2022-10-12T04:19:08.696Z,0
2022-10-12T04:20:08.753Z,0
2022-10-12T04:21:08.673Z,0
2022-10-12T04:22:08.666Z,0
2022-10-12T04:23:08.677Z,0
2022-10-12T04:24:08.685Z,0
2022-10-12T04:25:08.708Z,0
2022-10-12T04:26:08.677Z,0
2022-10-12T04:27:08.705Z,0
2022-10-12T04:28:08.674Z,0
2022-10-12T04:29:08.720Z,0
2022-10-12T04:30:08.788Z,0
2022-10-12T04:31:08.756Z,0
2022-10-12T04:32:17.784Z,0
2022-10-12T04:33:08.686Z,0
2022-10-12T04:34:08.711Z,0
2022-10-12T04:35:08.719Z,0
2022-10-12T04:36:08.724Z,0
2022-10-12T04:37:08.708Z,0
2022-10-12T04:38:08.701Z,0
2022-10-12T04:39:08.705Z,0
2022-10-12T04:40:08.753Z,0
2022-10-12T04:41:08.711Z,0
2022-10-12T04:42:11.647Z,0
2022-10-12T04:43:08.744Z,0
2022-10-12T04:44:08.717Z,0
2022-10-12T04:45:08.738Z,0
2022-10-12T04:46:08.718Z,0
2022-10-12T04:47:08.785Z,0
2022-10-12T04:48:08.719Z,0
2022-10-12T04:49:10.814Z,0
2022-10-12T04:50:08.833Z,0
2022-10-12T04:51:08.821Z,0
2022-10-12T04:52:08.837Z,0
2022-10-12T04:53:11.572Z,0
2022-10-12T04:54:08.743Z,0
2022-10-12T04:55:08.768Z,0
2022-10-12T04:56:08.746Z,0
2022-10-12T04:57:08.773Z,0
2022-10-12T04:58:08.781Z,0
2022-10-12T04:59:08.814Z,0
2022-10-12T05:00:08.769Z,0
2022-10-12T05:01:13.229Z,0
2022-10-12T05:02:08.761Z,0
2022-10-12T05:03:08.846Z,0
2022-10-12T05:04:11.768Z,0
2022-10-12T05:05:08.836Z,0
2022-10-12T05:06:08.790Z,0
2022-10-12T05:07:08.762Z,0
2022-10-12T05:08:08.754Z,0
2022-10-12T05:09:10.108Z,0
2022-10-12T05:10:08.772Z,0
2022-10-12T05:11:08.757Z,0
2022-10-12T05:12:08.804Z,0
2022-10-12T05:13:08.600Z,0
2022-10-12T05:14:08.755Z,0
2022-10-12T05:15:11.916Z,0
2022-10-12T05:16:08.765Z,0
2022-10-12T05:17:08.619Z,0
2022-10-12T05:18:08.782Z,0
2022-10-12T05:19:08.880Z,4
2022-10-12T05:20:09.744Z,0
2022-10-12T05:21:08.797Z,4
2022-10-12T05:22:08.844Z,4
2022-10-12T05:23:08.786Z,0
2022-10-12T05:24:08.920Z,4
2022-10-12T05:25:08.828Z,4
2022-10-12T05:26:11.987Z,4
2022-10-12T05:27:08.781Z,4
2022-10-12T05:28:11.643Z,4
2022-10-12T05:29:08.973Z,8
2022-10-12T05:30:10.202Z,4
2022-10-12T05:31:09.894Z,4
2022-10-12T05:32:08.857Z,4
2022-10-12T05:33:08.789Z,8
2022-10-12T05:34:08.781Z,4
2022-10-12T05:35:08.970Z,8
2022-10-12T05:36:08.793Z,4
2022-10-12T05:37:11.744Z,8
2022-10-12T05:38:08.788Z,8
2022-10-12T05:39:08.649Z,8
2022-10-12T05:40:08.818Z,8
2022-10-12T05:41:08.800Z,12
2022-10-12T05:42:12.036Z,12
2022-10-12T05:43:08.799Z,12
2022-10-12T05:44:08.834Z,16
2022-10-12T05:45:08.825Z,16
2022-10-12T05:46:14.459Z,16
2022-10-12T05:47:08.842Z,16
2022-10-12T05:48:11.886Z,16
2022-10-12T05:49:08.815Z,20
2022-10-12T05:50:08.865Z,20
2022-10-12T05:51:08.937Z,20
2022-10-12T05:52:08.860Z,20
2022-10-12T05:53:11.866Z,24
2022-10-12T05:54:08.826Z,24
2022-10-12T05:55:08.880Z,24
2022-10-12T05:56:08.853Z,28
2022-10-12T05:57:08.845Z,24
2022-10-12T05:58:08.827Z,28
2022-10-12T05:59:11.975Z,28
2022-10-12T06:00:08.850Z,32
2022-10-12T06:01:08.829Z,32
2022-10-12T06:02:09.273Z,32
2022-10-12T06:03:08.864Z,32
2022-10-12T06:04:11.705Z,32
2022-10-12T06:05:08.857Z,32
2022-10-12T06:06:08.846Z,32
2022-10-12T06:07:08.917Z,36
2022-10-12T06:08:08.848Z,36
2022-10-12T06:09:08.866Z,36
2022-10-12T06:10:12.013Z,40
2022-10-12T06:11:08.848Z,40
2022-10-12T06:12:08.851Z,44
2022-10-12T06:13:09.052Z,40
2022-10-12T06:14:08.867Z,44
2022-10-12T06:15:10.675Z,48
2022-10-12T06:16:08.912Z,48
2022-10-12T06:17:08.869Z,52
2022-10-12T06:18:08.874Z,52
2022-10-12T06:19:08.975Z,60
2022-10-12T06:20:08.915Z,64
2022-10-12T06:21:39.676Z,76
2022-10-12T06:22:08.868Z,80
2022-10-12T06:23:08.933Z,84
2022-10-12T06:24:08.919Z,88
2022-10-12T06:25:08.889Z,100
2022-10-12T06:26:11.897Z,108
2022-10-12T06:27:08.877Z,104
2022-10-12T06:28:08.881Z,96
2022-10-12T06:29:08.885Z,96
2022-10-12T06:30:08.898Z,100
2022-10-12T06:31:08.870Z,100
2022-10-12T06:32:08.884Z,96
2022-10-12T06:33:08.883Z,96
2022-10-12T06:34:08.890Z,96
2022-10-12T06:35:09.025Z,96
2022-10-12T06:36:08.901Z,100
2022-10-12T06:37:50.604Z,116
2022-10-12T06:38:08.948Z,116
2022-10-12T06:39:08.961Z,124
2022-10-12T06:40:08.915Z,132
2022-10-12T06:41:08.904Z,128
2022-10-12T06:42:08.895Z,124
2022-10-12T06:43:08.893Z,124
2022-10-12T06:44:08.892Z,128
2022-10-12T06:45:08.938Z,128
2022-10-12T06:46:09.074Z,124
2022-10-12T06:47:08.965Z,120
2022-10-12T06:48:08.929Z,116
2022-10-12T06:49:08.932Z,120
2022-10-12T06:50:08.991Z,116
2022-10-12T06:51:08.956Z,112
2022-10-12T06:52:08.922Z,108
2022-10-12T06:53:08.948Z,100
2022-10-12T06:54:08.943Z,96
2022-10-12T06:55:09.045Z,96
2022-10-12T06:56:08.926Z,92
2022-10-12T06:57:08.916Z,96
2022-10-12T06:58:08.927Z,96
2022-10-12T06:59:08.920Z,96
2022-10-12T07:00:08.967Z,104
2022-10-12T07:01:08.943Z,104
2022-10-12T07:02:09.252Z,108
2022-10-12T07:03:08.948Z,112
2022-10-12T07:04:11.719Z,108
2022-10-12T07:05:08.965Z,112
2022-10-12T07:06:08.940Z,112
2022-10-12T07:07:08.966Z,112
2022-10-12T07:08:09.006Z,112
2022-10-12T07:09:11.946Z,108
2022-10-12T07:10:08.967Z,108
2022-10-12T07:11:09.025Z,104
2022-10-12T07:12:08.947Z,100
2022-10-12T07:13:08.943Z,100
2022-10-12T07:14:08.979Z,100
2022-10-12T07:15:09.001Z,96
2022-10-12T07:16:08.966Z,92
2022-10-12T07:17:09.006Z,96
2022-10-12T07:18:08.958Z,100
2022-10-12T07:19:08.953Z,108
2022-10-12T07:20:12.062Z,116
2022-10-12T07:21:08.951Z,128
2022-10-12T07:22:08.973Z,128
2022-10-12T07:23:08.994Z,132
2022-10-12T07:24:08.995Z,136
2022-10-12T07:25:08.978Z,132
2022-10-12T07:26:08.972Z,140
2022-10-12T07:27:09.070Z,140
2022-10-12T07:28:08.972Z,144
2022-10-12T07:29:08.981Z,148
2022-10-12T07:30:09.026Z,160
2022-10-12T07:31:12.076Z,164
2022-10-12T07:32:11.773Z,168
2022-10-12T07:33:09.024Z,172
2022-10-12T07:34:08.987Z,176
2022-10-12T07:35:09.055Z,192
2022-10-12T07:36:35.752Z,204
2022-10-12T07:37:09.001Z,200
2022-10-12T07:38:08.982Z,184
2022-10-12T07:39:09.037Z,172
2022-10-12T07:40:09.001Z,164
2022-10-12T07:41:09.031Z,156
2022-10-12T07:42:21.217Z,160
2022-10-12T07:43:26.111Z,164
2022-10-12T07:44:09.003Z,164
2022-10-12T07:45:08.997Z,168
2022-10-12T07:46:10.053Z,168
2022-10-12T07:47:12.146Z,176
2022-10-12T07:48:09.017Z,180
2022-10-12T07:49:09.007Z,188
2022-10-12T07:50:09.045Z,192
2022-10-12T07:51:09.018Z,200
2022-10-12T07:52:09.022Z,212
2022-10-12T07:53:12.015Z,216
2022-10-12T07:54:09.052Z,228
2022-10-12T07:55:09.069Z,244
2022-10-12T07:56:09.033Z,248
2022-10-12T07:57:09.033Z,244
2022-10-12T07:58:11.903Z,240
2022-10-12T07:59:09.089Z,248
2022-10-12T08:00:09.058Z,276
2022-10-12T08:01:09.030Z,324
2022-10-12T08:02:09.615Z,428
2022-10-12T08:03:09.072Z,524
2022-10-12T08:04:12.209Z,552
2022-10-12T08:05:10.090Z,584
2022-10-12T08:06:09.052Z,620
2022-10-12T08:07:09.056Z,736
2022-10-12T08:08:09.034Z,804
2022-10-12T08:09:11.815Z,900
2022-10-12T08:10:09.026Z,1232
2022-10-12T08:11:09.127Z,1028
2022-10-12T08:12:09.050Z,1244
2022-10-12T08:13:09.042Z,1012
2022-10-12T08:14:09.101Z,720
2022-10-12T08:15:11.924Z,644
2022-10-12T08:16:09.091Z,748
2022-10-12T08:17:09.100Z,684
2022-10-12T08:18:09.054Z,612
2022-10-12T08:19:09.067Z,636
2022-10-12T08:20:11.920Z,656
2022-10-12T08:21:09.081Z,972
2022-10-12T08:22:09.108Z,1040
2022-10-12T08:23:09.069Z,1180
2022-10-12T08:24:09.090Z,1036
2022-10-12T08:25:09.079Z,996
2022-10-12T08:26:11.883Z,1136
2022-10-12T08:27:09.105Z,1288
2022-10-12T08:28:09.086Z,1372
2022-10-12T08:29:09.128Z,1344
2022-10-12T08:30:09.133Z,1276
2022-10-12T08:31:12.070Z,1240
2022-10-12T08:32:09.080Z,1296
2022-10-12T08:33:15.037Z,1216
2022-10-12T08:34:09.104Z,1356
2022-10-12T08:35:09.164Z,1424
2022-10-12T08:36:09.123Z,1416
2022-10-12T08:37:12.365Z,1400
2022-10-12T08:38:09.103Z,1376
2022-10-12T08:39:09.116Z,1432
2022-10-12T08:40:11.865Z,1388
2022-10-12T08:41:09.156Z,1324
2022-10-12T08:42:11.967Z,1312
2022-10-12T08:43:09.161Z,1404
2022-10-12T08:44:09.100Z,1412
2022-10-12T08:45:09.096Z,1396
2022-10-12T08:46:09.312Z,1392
2022-10-12T08:47:09.176Z,1416
2022-10-12T08:48:11.952Z,1412
2022-10-12T08:49:09.132Z,1412
2022-10-12T08:50:09.110Z,1384
2022-10-12T08:51:10.599Z,1368
2022-10-12T08:52:09.132Z,1352
2022-10-12T08:53:12.215Z,1352
2022-10-12T08:54:09.119Z,1332
2022-10-12T08:55:09.147Z,1288
2022-10-12T08:56:09.138Z,1384
2022-10-12T08:57:09.367Z,1396
2022-10-12T08:58:09.137Z,1360
2022-10-12T08:59:13.069Z,1368
2022-10-12T09:00:09.133Z,1420
2022-10-12T09:01:14.101Z,1472
2022-10-12T09:02:09.636Z,1468
2022-10-12T09:03:09.178Z,1476
2022-10-12T09:04:12.230Z,1476
2022-10-12T09:05:09.192Z,1464
2022-10-12T09:06:09.177Z,1464
2022-10-12T09:07:09.137Z,1468
2022-10-12T09:08:09.155Z,1476
2022-10-12T09:09:09.194Z,1464
2022-10-12T09:10:09.154Z,1472
2022-10-12T09:11:12.019Z,1476
2022-10-12T09:12:09.150Z,1480
2022-10-12T09:13:09.212Z,1472
2022-10-12T09:14:09.193Z,1464
2022-10-12T09:15:09.246Z,1472
2022-10-12T09:16:09.183Z,1472
2022-10-12T09:17:09.175Z,1472
2022-10-12T09:18:09.195Z,1448
2022-10-12T09:19:09.282Z,1444
2022-10-12T09:20:09.252Z,1452
2022-10-12T09:21:09.353Z,1460
2022-10-12T09:22:09.361Z,1452
2022-10-12T09:23:09.161Z,1464
2022-10-12T09:24:09.169Z,1468
2022-10-12T09:25:09.189Z,1460
2022-10-12T09:26:09.194Z,1456
2022-10-12T09:27:09.414Z,1448
2022-10-12T09:28:09.190Z,1432
2022-10-12T09:29:09.693Z,1428
2022-10-12T09:30:09.255Z,1428
2022-10-12T09:31:09.287Z,1432
2022-10-12T09:32:09.190Z,1452
2022-10-12T09:33:09.241Z,1452
2022-10-12T09:34:09.225Z,1460
2022-10-12T09:35:09.214Z,1452
2022-10-12T09:36:12.350Z,1456
2022-10-12T09:37:09.218Z,1472
2022-10-12T09:38:09.323Z,1472
2022-10-12T09:39:09.205Z,1464
2022-10-12T09:40:09.208Z,1456
2022-10-12T09:41:09.228Z,1436
2022-10-12T09:42:09.212Z,1436
2022-10-12T09:43:09.211Z,1420
2022-10-12T09:44:09.210Z,1424
2022-10-12T09:45:09.201Z,1424
2022-10-12T09:46:09.229Z,1432
2022-10-12T09:47:12.347Z,1436
2022-10-12T09:48:09.233Z,1448
2022-10-12T09:49:09.327Z,1452
2022-10-12T09:50:09.267Z,1436
2022-10-12T09:51:09.352Z,1428
2022-10-12T09:52:09.240Z,1432
2022-10-12T09:53:09.223Z,1440
2022-10-12T09:54:09.239Z,1436
2022-10-12T09:55:12.498Z,1468
2022-10-12T09:56:10.596Z,1476
2022-10-12T09:57:09.229Z,1484
2022-10-12T09:58:12.031Z,1476
2022-10-12T09:59:09.238Z,1460
2022-10-12T10:00:09.257Z,1460
2022-10-12T10:01:09.281Z,1432
2022-10-12T10:02:09.475Z,1444
2022-10-12T10:03:09.276Z,1476
2022-10-12T10:04:09.236Z,1488
2022-10-12T10:05:09.270Z,1432
2022-10-12T10:06:09.298Z,1380
2022-10-12T10:07:09.281Z,1388
2022-10-12T10:08:09.252Z,1404
2022-10-12T10:09:10.336Z,1428
2022-10-12T10:10:09.256Z,1424
2022-10-12T10:11:09.306Z,1448
2022-10-12T10:12:09.258Z,1440
2022-10-12T10:13:09.432Z,1436
2022-10-12T10:14:12.041Z,1392
2022-10-12T10:15:09.282Z,1352
2022-10-12T10:16:09.309Z,1392
2022-10-12T10:17:09.284Z,1424
2022-10-12T10:18:09.263Z,1412
2022-10-12T10:19:09.345Z,1336
2022-10-12T10:20:12.059Z,1384
2022-10-12T10:21:09.462Z,1400
2022-10-12T10:22:09.295Z,1400
2022-10-12T10:23:09.335Z,1416
2022-10-12T10:24:09.366Z,1400
2022-10-12T10:25:12.448Z,1384
2022-10-12T10:26:09.578Z,1404
2022-10-12T10:27:09.327Z,1376
2022-10-12T10:28:09.289Z,1368
2022-10-12T10:29:09.510Z,1348
2022-10-12T10:30:44.108Z,1348
2022-10-12T10:31:12.094Z,1352
2022-10-12T10:32:09.296Z,1360
2022-10-12T10:33:09.290Z,1344
2022-10-12T10:34:09.308Z,1336
2022-10-12T10:35:09.341Z,1328
2022-10-12T10:36:11.128Z,1336
2022-10-12T10:37:09.340Z,1328
2022-10-12T10:38:09.348Z,1308
2022-10-12T10:39:09.328Z,1316
2022-10-12T10:40:09.346Z,1280
2022-10-12T10:41:09.528Z,1060
2022-10-12T10:42:12.333Z,1248
2022-10-12T10:43:09.324Z,1256
2022-10-12T10:44:09.327Z,1284
2022-10-12T10:45:09.472Z,1324
2022-10-12T10:46:09.340Z,1264
2022-10-12T10:47:12.264Z,1260
2022-10-12T10:48:12.313Z,1232
2022-10-12T10:49:09.330Z,1228
2022-10-12T10:50:09.326Z,628
2022-10-12T10:51:09.374Z,948
2022-10-12T10:52:09.375Z,588
2022-10-12T10:53:12.239Z,496
2022-10-12T10:54:09.377Z,596
2022-10-12T10:55:09.358Z,1028
2022-10-12T10:56:09.398Z,1132
2022-10-12T10:57:09.366Z,576
2022-10-12T10:58:12.126Z,572
2022-10-12T10:59:17.429Z,612
2022-10-12T11:00:45.995Z,1080
2022-10-12T11:01:09.536Z,1100
2022-10-12T11:02:09.736Z,1032
2022-10-12T11:03:09.562Z,908
2022-10-12T11:04:12.422Z,612
2022-10-12T11:05:09.395Z,528
2022-10-12T11:06:09.367Z,560
2022-10-12T11:07:09.514Z,536
2022-10-12T11:08:09.436Z,564
2022-10-12T11:09:12.491Z,760
2022-10-12T11:10:09.648Z,508
2022-10-12T11:11:09.639Z,496
2022-10-12T11:12:09.563Z,476
2022-10-12T11:13:09.494Z,460
2022-10-12T11:14:09.392Z,476
2022-10-12T11:15:12.435Z,508
2022-10-12T11:16:09.404Z,524
2022-10-12T11:17:09.397Z,516
2022-10-12T11:18:18.007Z,504
2022-10-12T11:19:09.393Z,496
2022-10-12T11:20:10.707Z,576
2022-10-12T11:21:09.519Z,1012
2022-10-12T11:22:09.400Z,1064
2022-10-12T11:23:09.422Z,808
2022-10-12T11:24:12.428Z,1072
2022-10-12T11:25:09.513Z,1136
2022-10-12T11:26:09.420Z,1012
2022-10-12T11:27:09.415Z,664
2022-10-12T11:28:09.418Z,920
2022-10-12T11:29:09.399Z,512
2022-10-12T11:30:16.541Z,524
2022-10-12T11:31:10.929Z,456
2022-10-12T11:32:09.418Z,420
2022-10-12T11:33:09.428Z,396
2022-10-12T11:34:15.596Z,392
2022-10-12T11:35:09.423Z,400
2022-10-12T11:36:09.442Z,416
2022-10-12T11:37:27.691Z,492
2022-10-12T11:38:15.308Z,704
2022-10-12T11:39:13.843Z,532
2022-10-12T11:40:09.488Z,584
2022-10-12T11:42:20.165Z,888
2022-10-12T11:42:30.318Z,796
2022-10-12T11:43:33.337Z,480
2022-10-12T11:44:39.872Z,452
2022-10-12T11:45:30.231Z,428
2022-10-12T11:46:30.300Z,416
2022-10-12T11:47:30.389Z,648
2022-10-12T11:48:33.932Z,620
2022-10-12T11:49:30.259Z,976
2022-10-12T11:50:30.262Z,1008
2022-10-12T11:51:30.270Z,1044
2022-10-12T11:52:35.529Z,1044
2022-10-12T11:53:30.293Z,996
2022-10-12T11:54:33.244Z,924
2022-10-12T11:55:30.297Z,968
2022-10-12T11:56:30.313Z,968
2022-10-12T11:57:30.341Z,972
2022-10-12T11:59:06.595Z,948
2022-10-12T11:59:30.374Z,904
2022-10-12T12:00:30.271Z,832
2022-10-12T12:01:30.312Z,444
2022-10-12T12:02:30.288Z,404
2022-10-12T12:03:30.784Z,384
2022-10-12T12:04:49.567Z,368
2022-10-12T12:05:33.317Z,376
2022-10-12T12:06:30.319Z,392
2022-10-12T12:07:30.535Z,432
2022-10-12T12:08:30.364Z,768
2022-10-12T12:09:30.415Z,908
2022-10-12T12:10:36.147Z,916
2022-10-12T12:11:30.316Z,904
2022-10-12T12:12:30.297Z,880
2022-10-12T12:13:30.423Z,852
2022-10-12T12:14:30.335Z,752
2022-10-12T12:15:30.328Z,824
2022-10-12T12:16:35.049Z,824
2022-10-12T12:17:36.868Z,844
2022-10-12T12:18:30.407Z,808
2022-10-12T12:19:30.307Z,828
2022-10-12T12:20:30.322Z,812
2022-10-12T12:21:31.236Z,816
2022-10-12T12:22:30.342Z,824
2022-10-12T12:23:30.353Z,832
2022-10-12T12:24:30.320Z,840
2022-10-12T12:25:30.344Z,824
2022-10-12T12:26:30.382Z,812
2022-10-12T12:27:33.011Z,836
2022-10-12T12:28:30.610Z,840
2022-10-12T12:29:33.328Z,840
2022-10-12T12:30:30.339Z,832
2022-10-12T12:31:30.564Z,844
2022-10-12T12:32:35.840Z,764
2022-10-12T12:33:30.441Z,804
2022-10-12T12:34:30.420Z,816
2022-10-12T12:35:30.485Z,380
2022-10-12T12:36:30.526Z,644
2022-10-12T12:37:30.449Z,552
2022-10-12T12:38:33.137Z,380
2022-10-12T12:39:30.338Z,328
2022-10-12T12:40:30.342Z,324
2022-10-12T12:41:30.370Z,344
2022-10-12T12:42:30.490Z,764
2022-10-12T12:43:33.476Z,568
2022-10-12T12:44:30.356Z,384
2022-10-12T12:45:30.526Z,384
2022-10-12T12:46:30.431Z,400
2022-10-12T12:47:52.061Z,376
2022-10-12T12:48:30.431Z,416
2022-10-12T12:49:33.300Z,796
2022-10-12T12:50:31.522Z,796
2022-10-12T12:51:30.400Z,836
2022-10-12T12:52:30.356Z,896
2022-10-12T12:53:30.376Z,840
2022-10-12T12:54:33.151Z,832
2022-10-12T12:55:30.403Z,824
2022-10-12T12:56:33.371Z,832
2022-10-12T12:57:30.369Z,828
2022-10-12T12:58:30.428Z,832
2022-10-12T12:59:30.366Z,816
2022-10-12T13:00:36.713Z,824
2022-10-12T13:01:30.870Z,772
2022-10-12T13:02:30.425Z,816
2022-10-12T13:03:30.393Z,796
2022-10-12T13:04:30.437Z,800
2022-10-12T13:05:33.446Z,824
2022-10-12T13:06:30.381Z,812
2022-10-12T13:07:30.840Z,812
2022-10-12T13:08:30.394Z,800
2022-10-12T13:09:30.493Z,796
2022-10-12T13:10:30.493Z,796
2022-10-12T13:11:30.392Z,780
2022-10-12T13:12:30.457Z,792
2022-10-12T13:13:30.487Z,796
2022-10-12T13:14:33.223Z,804
2022-10-12T13:15:30.407Z,784
2022-10-12T13:17:38.364Z,748
2022-10-12T13:18:55.461Z,648
2022-10-12T13:19:48.134Z,324
2022-10-12T13:20:48.166Z,312
2022-10-12T13:21:48.142Z,324
2022-10-12T13:22:51.307Z,432
2022-10-12T13:23:48.145Z,612
2022-10-12T13:24:48.147Z,720
2022-10-12T13:25:48.259Z,740
2022-10-12T13:26:48.179Z,788
2022-10-12T13:27:48.177Z,764
2022-10-12T13:28:50.831Z,756
2022-10-12T13:29:48.165Z,784
2022-10-12T13:30:48.493Z,788
2022-10-12T13:31:48.199Z,784
2022-10-12T13:32:48.278Z,764
2022-10-12T13:33:50.951Z,756
2022-10-12T13:34:48.165Z,716
2022-10-12T13:35:48.201Z,748
2022-10-12T13:36:48.407Z,748
2022-10-12T13:37:48.191Z,756
2022-10-12T13:38:48.177Z,652
2022-10-12T13:39:51.062Z,304
2022-10-12T13:40:48.225Z,396
2022-10-12T13:41:48.172Z,740
2022-10-12T13:42:48.202Z,716
2022-10-12T13:43:48.309Z,364
2022-10-12T13:44:51.016Z,680
2022-10-12T13:45:48.180Z,732
2022-10-12T13:46:48.203Z,724
2022-10-12T13:47:48.245Z,728
2022-10-12T13:49:05.862Z,732
2022-10-12T13:49:48.192Z,740
2022-10-12T13:50:51.171Z,748
2022-10-12T13:51:49.018Z,640
2022-10-12T13:52:48.566Z,684
2022-10-12T13:53:48.224Z,424
2022-10-12T13:54:47.904Z,652
2022-10-12T13:55:51.074Z,672
2022-10-12T13:56:48.226Z,660
2022-10-12T13:57:48.232Z,628
2022-10-12T13:58:48.222Z,608
2022-10-12T13:59:48.175Z,664
2022-10-12T14:00:48.503Z,672
2022-10-12T14:01:51.265Z,616
2022-10-12T14:02:48.114Z,656
2022-10-12T14:03:48.306Z,664
2022-10-12T14:04:48.439Z,648
2022-10-12T14:05:50.529Z,636
2022-10-12T14:06:51.308Z,632